createdAt,value
2023-02-23T00:02:30.356Z,74.71
2023-02-23T00:07:36.690Z,74.41
2023-02-23T00:12:39.534Z,74.25
2023-02-23T00:17:42.565Z,74.27
2023-02-23T00:22:46.652Z,74.24
2023-02-23T00:27:50.241Z,73.80
2023-02-23T00:32:53.464Z,73.64
2023-02-23T00:37:57.555Z,73.49
2023-02-23T00:43:01.648Z,73.70
2023-02-23T00:48:10.690Z,74.99
2023-02-23T00:53:16.683Z,74.56
2023-02-23T00:58:19.686Z,74.76
2023-02-23T01:03:22.516Z,74.58
2023-02-23T01:08:27.894Z,74.42
2023-02-23T01:13:30.716Z,74.09
2023-02-23T01:18:34.719Z,73.93
2023-02-23T01:23:39.065Z,74.26
2023-02-23T01:28:42.458Z,74.05
2023-02-23T01:33:45.977Z,74.27
2023-02-23T01:38:50.312Z,75.00
2023-02-23T01:43:58.091Z,75.08
2023-02-23T01:49:01.294Z,75.57
2023-02-23T01:54:10.902Z,76.03
2023-02-23T01:59:16.667Z,76.58
2023-02-23T02:04:20.750Z,77.06
2023-02-23T02:09:28.285Z,77.10
2023-02-23T02:14:32.275Z,77.40
2023-02-23T02:20:26.472Z,77.95
2023-02-23T02:25:44.547Z,77.55
2023-02-23T02:31:37.372Z,77.97
2023-02-23T02:37:19.271Z,77.94
2023-02-23T02:42:34.035Z,77.90
2023-02-23T02:47:40.640Z,78.18
2023-02-23T02:52:54.204Z,78.12
2023-02-23T02:58:02.187Z,78.27
2023-02-23T03:03:23.515Z,78.68
2023-02-23T03:08:52.015Z,78.59
2023-02-23T03:14:24.573Z,78.60
2023-02-23T03:19:47.611Z,78.89
2023-02-23T03:25:16.235Z,79.41
2023-02-23T03:30:44.604Z,80.19
2023-02-23T03:36:10.836Z,80.68
2023-02-23T03:41:36.397Z,81.04
2023-02-23T03:46:58.501Z,81.67
2023-02-23T03:52:25.785Z,82.19
2023-02-23T03:57:49.987Z,82.50
2023-02-23T04:03:13.598Z,82.37
2023-02-23T04:08:38.313Z,82.77
2023-02-23T04:13:46.329Z,83.07
2023-02-23T04:18:49.170Z,83.54
2023-02-23T04:23:52.135Z,83.70
2023-02-23T04:28:56.292Z,84.29
2023-02-23T04:33:59.075Z,84.73
2023-02-23T04:39:01.875Z,85.37
2023-02-23T04:44:06.247Z,85.34
2023-02-23T04:49:09.045Z,85.77
2023-02-23T04:54:11.942Z,86.20
2023-02-23T04:59:16.141Z,86.64
2023-02-23T05:04:18.928Z,86.86
2023-02-23T05:09:21.775Z,86.91
2023-02-23T05:14:27.103Z,87.38
2023-02-23T05:19:30.081Z,87.45
2023-02-23T05:24:32.968Z,88.00
2023-02-23T05:29:37.294Z,88.28
2023-02-23T05:34:41.019Z,87.90
2023-02-23T05:39:43.780Z,87.68
2023-02-23T05:44:47.954Z,87.62
2023-02-23T05:49:50.710Z,87.94
2023-02-23T05:54:53.502Z,88.15
2023-02-23T05:59:57.696Z,88.42
2023-02-23T06:05:00.459Z,88.44
2023-02-23T06:10:07.281Z,88.66
2023-02-23T06:15:35.910Z,88.84
2023-02-23T06:20:40.440Z,88.46
2023-02-23T06:25:43.367Z,88.65
2023-02-23T06:30:48.673Z,88.90
2023-02-23T06:35:51.516Z,88.74
2023-02-23T06:40:54.501Z,88.88
2023-02-23T06:45:58.645Z,88.77
2023-02-23T06:51:01.788Z,89.05
2023-02-23T06:56:05.462Z,89.03
2023-02-23T07:01:09.938Z,89.34
2023-02-23T07:06:12.752Z,89.39
2023-02-23T07:11:18.761Z,89.54
2023-02-23T07:16:24.182Z,89.79
2023-02-23T07:21:27.104Z,90.01
2023-02-23T07:26:29.998Z,89.39
2023-02-23T07:31:34.279Z,89.11
2023-02-23T07:36:37.505Z,89.52
2023-02-23T07:41:40.346Z,89.74
2023-02-23T07:46:54.780Z,88.89
2023-02-23T07:51:57.962Z,88.89
2023-02-23T07:57:37.893Z,89.62
2023-02-23T08:02:42.337Z,88.67
2023-02-23T08:07:45.387Z,89.10
2023-02-23T08:12:48.155Z,89.41
2023-02-23T08:17:52.672Z,89.95
2023-02-23T08:22:55.886Z,89.19
2023-02-23T08:28:04.803Z,89.64
2023-02-23T08:33:09.005Z,89.32
2023-02-23T08:38:11.777Z,89.35
2023-02-23T08:43:14.487Z,89.20
2023-02-23T08:48:18.647Z,89.15
2023-02-23T08:53:23.165Z,89.35
2023-02-23T08:58:26.020Z,89.37
2023-02-23T09:03:31.153Z,89.85
2023-02-23T09:08:33.942Z,89.94
2023-02-23T09:13:37.041Z,89.94
2023-02-23T09:18:42.212Z,89.62
2023-02-23T09:23:45.955Z,89.01
2023-02-23T09:28:49.021Z,89.74
2023-02-23T09:33:54.288Z,89.76
2023-02-23T09:38:57.801Z,89.57
2023-02-23T09:44:03.815Z,89.99
2023-02-23T09:49:16.470Z,90.34
2023-02-23T09:54:19.780Z,89.64
2023-02-23T09:59:25.024Z,89.36
2023-02-23T10:04:32.287Z,89.26
2023-02-23T10:09:52.236Z,89.56
2023-02-23T10:15:16.956Z,88.92
2023-02-23T10:20:28.258Z,89.34
2023-02-23T10:25:36.516Z,89.36
2023-02-23T10:30:42.201Z,89.35
2023-02-23T10:35:47.192Z,89.54
2023-02-23T10:40:55.048Z,89.40
2023-02-23T10:45:57.882Z,89.40
2023-02-23T10:51:04.392Z,89.60
2023-02-23T10:56:10.798Z,89.95
2023-02-23T11:01:14.895Z,89.99
2023-02-23T11:06:32.776Z,89.73
2023-02-23T11:11:35.620Z,89.51
2023-02-23T11:16:40.374Z,88.89
2023-02-23T11:21:52.430Z,89.86
2023-02-23T11:27:00.296Z,89.88
2023-02-23T11:32:10.528Z,89.94
2023-02-23T11:37:23.346Z,88.97
2023-02-23T11:42:27.232Z,89.60
2023-02-23T11:47:31.535Z,88.61
2023-02-23T11:52:36.515Z,89.40
2023-02-23T11:57:39.430Z,88.44
2023-02-23T12:02:51.927Z,88.07
2023-02-23T12:08:02.336Z,87.40
2023-02-23T12:13:17.937Z,88.26
2023-02-23T12:18:37.896Z,88.26
2023-02-23T12:23:48.649Z,87.99
2023-02-23T12:28:58.811Z,87.83
2023-02-23T12:34:05.294Z,87.89
2023-02-23T12:39:18.535Z,88.35
2023-02-23T12:44:33.289Z,88.33
2023-02-23T12:49:42.508Z,88.12
2023-02-23T12:54:47.977Z,88.44
2023-02-23T13:00:20.466Z,87.79
2023-02-23T13:05:28.487Z,88.21
2023-02-23T13:10:41.659Z,88.12
2023-02-23T13:16:01.047Z,88.20
2023-02-23T13:21:12.774Z,87.67
2023-02-23T13:26:28.697Z,88.52
2023-02-23T13:31:35.286Z,88.78
2023-02-23T13:36:40.703Z,88.50
2023-02-23T13:41:56.962Z,88.59
2023-02-23T13:47:10.634Z,89.11
2023-02-23T13:52:24.079Z,89.08
2023-02-23T13:57:29.185Z,88.63
2023-02-23T14:02:36.488Z,89.20
2023-02-23T14:07:42.593Z,88.83
2023-02-23T14:13:07.109Z,88.32
2023-02-23T14:18:34.458Z,88.21
2023-02-23T14:23:51.498Z,88.20
2023-02-23T14:29:25.742Z,88.54
2023-02-23T14:34:47.145Z,88.04
2023-02-23T14:39:51.604Z,89.26
2023-02-23T14:44:57.347Z,88.97
2023-02-23T14:50:02.493Z,88.59
2023-02-23T14:55:20.996Z,88.83
2023-02-23T15:00:27.484Z,88.71
2023-02-23T15:05:32.604Z,88.79
2023-02-23T15:10:38.267Z,88.33
2023-02-23T15:15:46.500Z,88.49
2023-02-23T15:20:50.228Z,88.38
2023-02-23T15:25:53.109Z,88.14
2023-02-23T15:31:00.842Z,88.49
2023-02-23T15:36:09.196Z,88.83
2023-02-23T15:41:19.616Z,88.89
2023-02-23T15:46:27.726Z,88.81
2023-02-23T15:51:36.127Z,88.71
2023-02-23T15:56:39.000Z,89.21
2023-02-23T16:01:46.301Z,89.17
2023-02-23T16:06:54.533Z,89.08
2023-02-23T16:12:02.717Z,88.64
2023-02-23T16:17:11.688Z,88.98
2023-02-23T16:22:22.658Z,88.90
2023-02-23T16:27:27.478Z,88.96
2023-02-23T16:32:38.885Z,88.94
2023-02-23T16:37:58.195Z,89.12
2023-02-23T16:43:01.105Z,89.09
2023-02-23T16:48:11.599Z,89.40
2023-02-23T16:53:15.298Z,89.02
2023-02-23T16:58:21.913Z,89.21
2023-02-23T17:03:27.851Z,88.86
2023-02-23T17:08:31.690Z,88.74
2023-02-23T17:13:35.477Z,88.85
2023-02-23T17:18:42.790Z,89.83
2023-02-23T17:23:50.892Z,89.05
2023-02-23T17:28:54.030Z,88.99
2023-02-23T17:33:58.387Z,88.54
2023-02-23T17:39:01.871Z,88.61
2023-02-23T17:44:05.893Z,88.40
2023-02-23T17:49:10.108Z,88.80
2023-02-23T17:54:12.950Z,88.76
2023-02-23T17:59:15.855Z,88.81
2023-02-23T18:04:20.019Z,88.36
2023-02-23T18:09:22.806Z,88.74
2023-02-23T18:14:25.613Z,88.67
2023-02-23T18:19:30.562Z,88.57
2023-02-23T18:24:33.374Z,88.66
2023-02-23T18:29:37.211Z,88.86
2023-02-23T18:34:41.415Z,88.51
2023-02-23T18:39:44.205Z,89.12
2023-02-23T18:44:47.120Z,89.07
2023-02-23T18:49:52.706Z,88.42
2023-02-23T18:54:55.761Z,88.27
2023-02-23T18:59:58.639Z,88.00
2023-02-23T19:05:03.088Z,88.52
2023-02-23T19:10:09.030Z,88.06
2023-02-23T19:15:12.304Z,89.58
2023-02-23T19:20:17.187Z,88.22
2023-02-23T19:25:20.025Z,88.15
2023-02-23T19:30:22.891Z,88.75
2023-02-23T19:35:27.043Z,88.49
2023-02-23T19:40:30.878Z,88.52
2023-02-23T19:45:33.758Z,87.08
2023-02-23T19:50:37.984Z,86.31
2023-02-23T19:55:41.721Z,86.64
2023-02-23T20:00:46.989Z,86.57
2023-02-23T20:05:51.175Z,86.88
2023-02-23T20:10:54.088Z,86.79
2023-02-23T20:16:02.075Z,86.82
2023-02-23T20:21:10.281Z,86.65
2023-02-23T20:26:16.472Z,86.76
2023-02-23T20:31:21.996Z,86.55
2023-02-23T20:36:26.894Z,86.44
2023-02-23T20:41:31.492Z,86.44
2023-02-23T20:46:34.287Z,86.62
2023-02-23T20:51:40.094Z,86.26
2023-02-23T20:56:44.547Z,85.30
2023-02-23T21:01:47.563Z,85.89
2023-02-23T21:06:51.773Z,85.37
2023-02-23T21:11:55.387Z,85.18
2023-02-23T21:16:58.655Z,84.95
2023-02-23T21:22:04.307Z,85.28
2023-02-23T21:27:12.617Z,84.81
2023-02-23T21:32:16.720Z,84.20
2023-02-23T21:37:21.031Z,85.04
2023-02-23T21:42:24.080Z,85.31
2023-02-23T21:47:27.003Z,85.13
2023-02-23T21:52:31.382Z,85.40
2023-02-23T21:57:34.239Z,85.37
2023-02-23T22:02:40.945Z,85.25
2023-02-23T22:07:51.236Z,85.09
2023-02-23T22:12:55.831Z,84.67
2023-02-23T22:17:58.791Z,85.19
2023-02-23T22:23:03.452Z,85.13
2023-02-23T22:28:09.028Z,84.76
2023-02-23T22:33:12.167Z,84.74
2023-02-23T22:38:19.068Z,83.86
2023-02-23T22:43:22.778Z,84.32
2023-02-23T22:48:28.375Z,83.97
2023-02-23T22:53:33.429Z,83.48
2023-02-23T22:58:36.735Z,84.41
2023-02-23T23:03:41.448Z,84.61
2023-02-23T23:08:49.040Z,82.66
2023-02-23T23:13:53.656Z,82.05
2023-02-23T23:18:58.304Z,82.64
2023-02-23T23:24:05.689Z,82.62
2023-02-23T23:29:11.243Z,82.92
2023-02-23T23:34:16.476Z,83.11
2023-02-23T23:39:23.205Z,82.75
2023-02-23T23:44:29.102Z,82.93
2023-02-23T23:49:35.697Z,82.98
2023-02-23T23:54:41.177Z,82.83
2023-02-23T23:59:46.143Z,82.51
